createdAt,value
2022-12-03T00:02:09.842Z,42.10
2022-12-03T00:04:36.303Z,42.29
2022-12-03T00:07:02.723Z,42.18
2022-12-03T00:09:29.108Z,41.63
2022-12-03T00:11:55.550Z,42.15
2022-12-03T00:14:22.120Z,41.80
2022-12-03T00:16:49.177Z,41.83
2022-12-03T00:19:15.691Z,41.68
2022-12-03T00:21:42.082Z,42.22
2022-12-03T00:24:08.470Z,42.29
2022-12-03T00:26:34.880Z,41.89
2022-12-03T00:29:01.240Z,42.30
2022-12-03T00:31:27.743Z,42.04
2022-12-03T00:33:54.241Z,42.38
2022-12-03T00:36:20.638Z,42.36
2022-12-03T00:38:47.005Z,42.10
2022-12-03T00:41:13.445Z,42.43
2022-12-03T00:43:40.107Z,42.25
2022-12-03T00:46:06.730Z,42.07
2022-12-03T00:48:33.159Z,42.08
2022-12-03T00:50:59.610Z,42.22
2022-12-03T00:53:26.078Z,41.94
2022-12-03T00:55:52.497Z,41.95
2022-12-03T00:58:20.962Z,42.12
2022-12-03T01:00:47.314Z,42.26
2022-12-03T01:03:13.690Z,41.87
2022-12-03T01:05:40.084Z,41.93
2022-12-03T01:08:06.616Z,42.29
2022-12-03T01:10:34.289Z,42.04
2022-12-03T01:13:00.683Z,42.18
2022-12-03T01:15:27.064Z,42.52
2022-12-03T01:17:53.469Z,42.37
2022-12-03T01:20:19.917Z,42.77
2022-12-03T01:22:46.308Z,42.45
2022-12-03T01:25:12.667Z,42.97
2022-12-03T01:27:39.023Z,42.73
2022-12-03T01:30:05.398Z,42.48
2022-12-03T01:32:31.768Z,42.32
2022-12-03T01:34:58.126Z,42.24
2022-12-03T01:37:24.542Z,42.69
2022-12-03T01:39:50.934Z,42.86
2022-12-03T01:42:17.331Z,42.68
2022-12-03T01:44:43.734Z,42.69
2022-12-03T01:47:10.165Z,42.94
2022-12-03T01:49:36.603Z,42.89
2022-12-03T01:52:02.982Z,42.68
2022-12-03T01:54:29.389Z,42.80
2022-12-03T01:56:55.758Z,43.04
2022-12-03T01:59:22.123Z,42.98
2022-12-03T02:01:48.521Z,42.79
2022-12-03T02:04:15.052Z,43.18
2022-12-03T02:06:41.544Z,42.92
2022-12-03T02:09:08.033Z,42.81
2022-12-03T02:11:34.387Z,43.01
2022-12-03T02:14:00.811Z,42.81
2022-12-03T02:16:27.300Z,42.85
2022-12-03T02:18:53.738Z,43.37
2022-12-03T02:21:20.173Z,43.15
2022-12-03T02:23:46.644Z,43.20
2022-12-03T02:26:13.158Z,42.83
2022-12-03T02:28:39.544Z,42.82
2022-12-03T02:31:06.009Z,42.71
2022-12-03T02:33:32.422Z,42.83
2022-12-03T02:36:03.283Z,42.94
2022-12-03T02:38:30.355Z,43.47
2022-12-03T02:40:56.758Z,43.59
2022-12-03T02:43:23.106Z,43.54
2022-12-03T02:45:49.509Z,42.89
2022-12-03T02:48:15.859Z,43.11
2022-12-03T02:50:42.232Z,42.82
2022-12-03T02:53:08.595Z,43.39
2022-12-03T02:55:37.085Z,43.00
2022-12-03T02:58:03.928Z,43.13
2022-12-03T03:00:30.349Z,43.25
2022-12-03T03:02:56.800Z,42.96
2022-12-03T03:05:23.498Z,42.79
2022-12-03T03:07:49.943Z,43.51
2022-12-03T03:10:16.395Z,43.74
2022-12-03T03:12:42.776Z,43.69
2022-12-03T03:15:09.165Z,43.43
2022-12-03T03:17:35.537Z,43.38
2022-12-03T03:20:01.952Z,43.56
2022-12-03T03:22:28.361Z,43.79
2022-12-03T03:24:55.075Z,44.13
2022-12-03T03:27:21.603Z,44.03
2022-12-03T03:29:48.082Z,43.88
2022-12-03T03:32:14.459Z,44.15
2022-12-03T03:34:40.850Z,43.92
2022-12-03T03:37:07.271Z,44.15
2022-12-03T03:39:33.686Z,43.84
2022-12-03T03:42:00.086Z,43.83
2022-12-03T03:44:26.445Z,44.15
2022-12-03T03:46:52.842Z,44.18
2022-12-03T03:49:19.261Z,44.14
2022-12-03T03:51:45.617Z,44.56
2022-12-03T03:54:12.056Z,44.75
2022-12-03T03:56:38.471Z,44.01
2022-12-03T03:59:04.839Z,44.43
2022-12-03T04:01:31.327Z,44.33
2022-12-03T04:03:57.963Z,44.30
2022-12-03T04:06:24.528Z,44.48
2022-12-03T04:08:50.905Z,44.30
2022-12-03T04:11:17.441Z,44.60
2022-12-03T04:13:43.797Z,44.50
2022-12-03T04:16:10.286Z,44.62
2022-12-03T04:18:36.755Z,44.87
2022-12-03T04:21:03.156Z,44.57
2022-12-03T04:23:31.135Z,44.76
2022-12-03T04:25:57.635Z,44.85
2022-12-03T04:28:24.032Z,44.70
2022-12-03T04:30:50.463Z,44.84
2022-12-03T04:33:17.032Z,44.56
2022-12-03T04:35:43.490Z,44.46
2022-12-03T04:38:09.955Z,45.02
2022-12-03T04:40:36.352Z,44.38
2022-12-03T04:43:02.755Z,44.42
2022-12-03T04:45:29.275Z,44.26
2022-12-03T04:47:55.661Z,44.21
2022-12-03T04:50:22.038Z,44.51
2022-12-03T04:52:48.417Z,44.69
2022-12-03T04:55:14.798Z,44.48
2022-12-03T04:57:41.165Z,44.40
2022-12-03T05:00:07.532Z,44.57
2022-12-03T05:02:33.971Z,44.29
2022-12-03T05:05:00.443Z,44.75
2022-12-03T05:07:26.956Z,44.18
2022-12-03T05:09:53.385Z,44.25
2022-12-03T05:12:19.760Z,44.52
2022-12-03T05:14:46.166Z,44.83
2022-12-03T05:17:12.664Z,44.62
2022-12-03T05:19:39.137Z,44.67
2022-12-03T05:22:05.525Z,45.02
2022-12-03T05:24:31.921Z,44.78
2022-12-03T05:26:58.301Z,44.73
2022-12-03T05:29:24.723Z,44.63
2022-12-03T05:31:51.102Z,45.04
2022-12-03T05:34:17.463Z,45.31
2022-12-03T05:36:43.918Z,45.16
2022-12-03T05:39:10.308Z,44.86
2022-12-03T05:41:36.657Z,45.06
2022-12-03T05:44:03.035Z,44.70
2022-12-03T05:46:29.526Z,45.36
2022-12-03T05:48:56.005Z,45.24
2022-12-03T05:51:22.380Z,44.81
2022-12-03T05:53:48.777Z,45.13
2022-12-03T05:56:15.146Z,44.91
2022-12-03T05:58:41.551Z,44.80
2022-12-03T06:01:07.988Z,44.78
2022-12-03T06:03:34.525Z,44.69
2022-12-03T06:06:00.978Z,44.36
2022-12-03T06:08:27.429Z,44.88
2022-12-03T06:10:53.827Z,44.46
2022-12-03T06:13:20.202Z,44.65
2022-12-03T06:15:46.667Z,43.98
2022-12-03T06:18:13.162Z,44.41
2022-12-03T06:20:39.591Z,44.08
2022-12-03T06:23:05.951Z,44.10
2022-12-03T06:25:32.356Z,44.37
2022-12-03T06:27:58.713Z,44.56
2022-12-03T06:30:25.079Z,44.12
2022-12-03T06:32:51.459Z,44.02
2022-12-03T06:35:17.892Z,44.62
2022-12-03T06:37:44.329Z,44.68
2022-12-03T06:40:10.758Z,44.33
2022-12-03T06:42:37.200Z,43.87
2022-12-03T06:45:03.626Z,44.33
2022-12-03T06:47:30.043Z,44.25
2022-12-03T06:49:56.403Z,43.67
2022-12-03T06:52:22.771Z,43.94
2022-12-03T06:54:49.235Z,44.14
2022-12-03T06:57:15.634Z,43.87
2022-12-03T06:59:42.186Z,43.81
2022-12-03T07:02:08.647Z,44.27
2022-12-03T07:04:35.026Z,43.98
2022-12-03T07:07:01.437Z,43.80
2022-12-03T07:09:27.844Z,43.77
2022-12-03T07:11:54.320Z,44.12
2022-12-03T07:14:20.701Z,44.10
2022-12-03T07:16:47.090Z,44.24
2022-12-03T07:19:13.558Z,43.54
2022-12-03T07:21:39.963Z,43.86
2022-12-03T07:24:06.384Z,43.76
2022-12-03T07:26:47.842Z,43.66
2022-12-03T07:29:14.252Z,43.84
2022-12-03T07:31:40.743Z,43.55
2022-12-03T07:34:07.172Z,43.81
2022-12-03T07:36:33.550Z,43.96
2022-12-03T07:38:59.987Z,44.21
2022-12-03T07:41:26.449Z,43.57
2022-12-03T07:43:52.874Z,43.60
2022-12-03T07:46:19.302Z,43.73
2022-12-03T07:48:45.688Z,43.60
2022-12-03T07:51:15.174Z,43.69
2022-12-03T07:53:42.051Z,43.56
2022-12-03T07:56:08.420Z,43.67
2022-12-03T07:58:34.817Z,43.48
2022-12-03T08:01:01.451Z,43.53
2022-12-03T08:03:27.899Z,43.60
2022-12-03T08:05:54.396Z,43.01
2022-12-03T08:08:20.787Z,43.35
2022-12-03T08:10:47.168Z,43.17
2022-12-03T08:13:13.520Z,42.87
2022-12-03T08:15:39.992Z,43.37
2022-12-03T08:18:06.380Z,43.16
2022-12-03T08:20:32.790Z,43.35
2022-12-03T08:22:59.155Z,43.16
2022-12-03T08:25:25.587Z,44.45
2022-12-03T08:27:55.107Z,46.63
2022-12-03T08:30:21.553Z,47.08
2022-12-03T08:32:47.939Z,47.24
2022-12-03T08:35:14.357Z,47.20
2022-12-03T08:37:40.746Z,47.42
2022-12-03T08:40:07.516Z,47.90
2022-12-03T08:42:33.959Z,47.67
2022-12-03T08:45:00.339Z,48.17
2022-12-03T08:47:26.735Z,48.65
2022-12-03T08:49:53.153Z,47.58
2022-12-03T08:52:19.534Z,47.42
2022-12-03T08:54:45.953Z,47.40
2022-12-03T08:57:12.390Z,46.84
2022-12-03T08:59:42.675Z,46.83
2022-12-03T09:02:11.882Z,47.08
2022-12-03T09:04:38.386Z,46.48
2022-12-03T09:07:04.857Z,47.06
2022-12-03T09:09:31.265Z,46.58
2022-12-03T09:11:57.632Z,46.22
2022-12-03T09:14:24.031Z,46.62
2022-12-03T09:16:50.498Z,46.06
2022-12-03T09:19:16.974Z,46.36
2022-12-03T09:21:43.377Z,46.29
2022-12-03T09:24:09.750Z,45.92
2022-12-03T09:26:36.213Z,45.95
2022-12-03T09:29:05.344Z,46.35
2022-12-03T09:31:35.486Z,45.75
2022-12-03T09:34:01.938Z,46.12
2022-12-03T09:36:28.366Z,46.33
2022-12-03T09:38:54.741Z,45.64
2022-12-03T09:41:21.115Z,45.74
2022-12-03T09:44:03.858Z,45.11
2022-12-03T09:46:31.294Z,44.83
2022-12-03T09:48:57.740Z,44.86
2022-12-03T09:51:24.147Z,44.43
2022-12-03T09:53:50.523Z,44.61
2022-12-03T09:56:16.894Z,44.11
2022-12-03T09:58:43.275Z,44.09
2022-12-03T10:01:09.719Z,44.51
2022-12-03T10:03:36.136Z,44.27
2022-12-03T10:06:02.574Z,43.59
2022-12-03T10:08:32.177Z,43.54
2022-12-03T10:10:58.929Z,43.64
2022-12-03T10:13:26.155Z,43.95
2022-12-03T10:15:52.628Z,43.87
2022-12-03T10:18:18.989Z,43.90
2022-12-03T10:20:45.377Z,43.16
2022-12-03T10:23:11.857Z,43.11
2022-12-03T10:25:38.228Z,43.10
2022-12-03T10:28:04.581Z,42.97
2022-12-03T10:30:31.180Z,43.05
2022-12-03T10:32:57.646Z,43.06
2022-12-03T10:35:24.015Z,42.78
2022-12-03T10:37:50.451Z,42.64
2022-12-03T10:40:16.814Z,42.28
2022-12-03T10:42:43.175Z,42.69
2022-12-03T10:45:09.544Z,42.35
2022-12-03T10:47:36.112Z,42.15
2022-12-03T10:50:02.700Z,42.49
2022-12-03T10:52:29.078Z,42.48
2022-12-03T10:54:55.828Z,42.49
2022-12-03T10:57:22.402Z,42.72
2022-12-03T10:59:48.785Z,42.36
2022-12-03T11:02:15.160Z,42.68
2022-12-03T11:04:41.525Z,41.88
2022-12-03T11:07:07.916Z,42.27
2022-12-03T11:09:34.378Z,42.19
2022-12-03T11:12:00.796Z,42.02
2022-12-03T11:14:27.197Z,41.56
2022-12-03T11:16:53.587Z,41.45
2022-12-03T11:19:20.061Z,41.27
2022-12-03T11:21:46.663Z,41.30
2022-12-03T11:24:13.051Z,41.70
2022-12-03T11:26:39.425Z,41.27
2022-12-03T11:29:05.963Z,41.46
2022-12-03T11:31:32.446Z,41.92
2022-12-03T11:33:58.908Z,41.44
2022-12-03T11:36:42.295Z,41.59
2022-12-03T11:39:11.877Z,42.18
2022-12-03T11:41:38.274Z,41.92
2022-12-03T11:44:04.654Z,41.73
2022-12-03T11:46:31.134Z,41.86
2022-12-03T11:48:57.537Z,41.59
2022-12-03T11:51:23.906Z,41.63
2022-12-03T11:53:50.312Z,41.86
2022-12-03T11:56:16.783Z,41.71
2022-12-03T11:58:43.175Z,41.87
2022-12-03T12:01:09.596Z,41.29
2022-12-03T12:03:36.096Z,41.87
2022-12-03T12:06:02.548Z,41.76
2022-12-03T12:08:28.980Z,41.33
2022-12-03T12:10:55.510Z,41.70
2022-12-03T12:13:21.900Z,41.13
2022-12-03T12:15:48.321Z,41.73
2022-12-03T12:18:14.880Z,41.45
2022-12-03T12:20:41.274Z,41.87
2022-12-03T12:23:07.705Z,41.59
2022-12-03T12:25:34.352Z,41.85
2022-12-03T12:28:00.722Z,42.49
2022-12-03T12:30:27.132Z,42.95
2022-12-03T12:32:53.606Z,43.16
2022-12-03T12:35:20.036Z,43.48
2022-12-03T12:37:48.166Z,43.80
2022-12-03T12:40:16.777Z,43.44
2022-12-03T12:42:43.219Z,43.98
2022-12-03T12:45:09.798Z,44.07
2022-12-03T12:47:36.309Z,43.94
2022-12-03T12:50:02.920Z,44.50
2022-12-03T12:52:29.336Z,44.21
2022-12-03T12:54:59.097Z,44.91
2022-12-03T12:57:29.600Z,44.07
2022-12-03T12:59:56.412Z,44.23
2022-12-03T13:02:22.982Z,44.26
2022-12-03T13:04:49.443Z,44.05
2022-12-03T13:07:16.176Z,44.44
2022-12-03T13:09:42.637Z,44.64
2022-12-03T13:12:09.049Z,44.75
2022-12-03T13:14:35.490Z,44.44
2022-12-03T13:17:01.926Z,44.45
2022-12-03T13:19:28.304Z,44.18
2022-12-03T13:21:54.703Z,44.81
2022-12-03T13:24:21.091Z,44.76
2022-12-03T13:26:47.479Z,44.24
2022-12-03T13:29:13.973Z,44.75
2022-12-03T13:31:43.746Z,44.87
2022-12-03T13:34:10.831Z,44.90
2022-12-03T13:36:37.261Z,44.09
2022-12-03T13:39:03.711Z,44.44
2022-12-03T13:41:30.075Z,44.40
2022-12-03T13:43:56.486Z,44.11
2022-12-03T13:46:22.999Z,44.37
2022-12-03T13:48:49.436Z,44.23
2022-12-03T13:51:15.776Z,44.16
2022-12-03T13:53:42.107Z,44.43
2022-12-03T13:56:08.517Z,44.38
2022-12-03T13:58:34.908Z,44.38
2022-12-03T14:01:01.322Z,44.21
2022-12-03T14:03:27.717Z,44.14
2022-12-03T14:05:54.214Z,44.09
2022-12-03T14:08:20.739Z,44.02
2022-12-03T14:10:47.285Z,44.06
2022-12-03T14:13:13.656Z,44.56
2022-12-03T14:15:40.171Z,44.09
2022-12-03T14:18:06.575Z,44.17
2022-12-03T14:20:33.048Z,44.43
2022-12-03T14:22:59.792Z,44.05
2022-12-03T14:25:26.361Z,44.51
2022-12-03T14:27:52.726Z,44.11
2022-12-03T14:30:19.118Z,44.03
2022-12-03T14:32:45.510Z,44.48
2022-12-03T14:35:11.875Z,44.17
2022-12-03T14:37:38.248Z,43.98
2022-12-03T14:40:04.668Z,44.09
2022-12-03T14:42:31.116Z,44.10
2022-12-03T14:44:57.465Z,44.20
2022-12-03T14:47:23.890Z,43.97
2022-12-03T14:49:50.261Z,44.40
2022-12-03T14:52:16.620Z,43.70
2022-12-03T14:54:43.074Z,43.80
2022-12-03T14:57:09.501Z,43.99
2022-12-03T14:59:36.070Z,44.06
2022-12-03T15:02:02.756Z,44.13
2022-12-03T15:04:29.380Z,43.88
2022-12-03T15:06:55.742Z,43.76
2022-12-03T15:09:22.135Z,43.61
2022-12-03T15:11:48.648Z,44.13
2022-12-03T15:14:15.041Z,43.84
2022-12-03T15:16:41.473Z,43.54
2022-12-03T15:19:07.905Z,43.73
2022-12-03T15:21:34.384Z,43.69
2022-12-03T15:24:00.801Z,43.46
2022-12-03T15:26:27.214Z,43.65
2022-12-03T15:28:53.655Z,43.59
2022-12-03T15:31:20.114Z,43.50
2022-12-03T15:33:46.581Z,43.31
2022-12-03T15:36:13.041Z,43.68
2022-12-03T15:38:39.413Z,43.36
2022-12-03T15:41:05.790Z,43.93
2022-12-03T15:43:32.258Z,43.49
2022-12-03T15:45:58.680Z,43.45
2022-12-03T15:48:25.081Z,43.24
2022-12-03T15:50:51.471Z,43.62
2022-12-03T15:53:17.845Z,43.70
2022-12-03T15:55:44.186Z,43.24
2022-12-03T15:58:10.556Z,43.33
2022-12-03T16:00:36.969Z,43.02
2022-12-03T16:03:03.345Z,43.07
2022-12-03T16:05:29.731Z,43.42
2022-12-03T16:07:56.123Z,43.54
2022-12-03T16:10:22.606Z,43.40
2022-12-03T16:12:48.958Z,43.26
2022-12-03T16:15:15.337Z,42.88
2022-12-03T16:17:41.714Z,43.36
2022-12-03T16:20:08.112Z,43.09
2022-12-03T16:22:34.585Z,42.97
2022-12-03T16:25:01.061Z,43.44
2022-12-03T16:27:27.529Z,43.17
2022-12-03T16:29:54.254Z,42.83
2022-12-03T16:32:20.879Z,42.69
2022-12-03T16:34:47.315Z,42.87
2022-12-03T16:37:13.850Z,42.53
2022-12-03T16:39:40.299Z,42.57
2022-12-03T16:42:10.430Z,43.25
2022-12-03T16:44:42.641Z,42.92
2022-12-03T16:47:09.107Z,42.86
2022-12-03T16:49:35.711Z,43.08
2022-12-03T16:52:02.175Z,42.38
2022-12-03T16:54:28.646Z,42.72
2022-12-03T16:56:55.053Z,42.61
2022-12-03T16:59:21.438Z,42.64
2022-12-03T17:01:47.951Z,42.21
2022-12-03T17:04:14.433Z,42.84
2022-12-03T17:06:40.807Z,42.32
2022-12-03T17:09:07.180Z,42.36
2022-12-03T17:11:33.625Z,42.38
2022-12-03T17:13:59.987Z,42.65
2022-12-03T17:16:26.444Z,42.92
2022-12-03T17:18:52.859Z,42.40
2022-12-03T17:21:19.406Z,42.47
2022-12-03T17:23:45.810Z,42.44
2022-12-03T17:26:12.150Z,42.42
2022-12-03T17:28:38.482Z,42.09
2022-12-03T17:31:04.885Z,42.25
2022-12-03T17:33:31.337Z,42.08
2022-12-03T17:35:57.800Z,41.84
2022-12-03T17:38:24.163Z,42.03
2022-12-03T17:40:50.535Z,42.41
2022-12-03T17:43:16.907Z,42.47
2022-12-03T17:45:43.306Z,42.30
2022-12-03T17:48:09.724Z,42.10
2022-12-03T17:50:36.130Z,41.77
2022-12-03T17:53:02.607Z,42.35
2022-12-03T17:55:37.234Z,41.86
2022-12-03T17:58:09.200Z,41.97
2022-12-03T18:00:35.609Z,41.75
2022-12-03T18:03:01.977Z,42.37
2022-12-03T18:05:28.346Z,41.91
2022-12-03T18:07:54.754Z,41.68
2022-12-03T18:10:21.172Z,41.96
2022-12-03T18:12:47.596Z,41.70
2022-12-03T18:15:14.138Z,41.54
2022-12-03T18:17:40.492Z,41.56
2022-12-03T18:20:07.115Z,41.93
2022-12-03T18:22:33.488Z,41.97
2022-12-03T18:24:59.890Z,41.84
2022-12-03T18:27:26.298Z,41.58
2022-12-03T18:29:53.490Z,41.78
2022-12-03T18:32:28.801Z,41.93
2022-12-03T18:34:56.450Z,41.84
2022-12-03T18:37:23.069Z,41.41
2022-12-03T18:39:49.471Z,41.95
2022-12-03T18:42:15.825Z,41.78
2022-12-03T18:44:47.911Z,47.68
2022-12-03T18:47:16.134Z,48.08
2022-12-03T18:49:42.611Z,48.38
2022-12-03T18:52:08.961Z,49.64
2022-12-03T18:54:35.358Z,49.40
2022-12-03T18:57:01.757Z,48.39
2022-12-03T18:59:28.183Z,48.29
2022-12-03T19:01:54.667Z,48.35
2022-12-03T19:04:21.138Z,47.68
2022-12-03T19:06:47.518Z,48.03
2022-12-03T19:09:13.935Z,47.78
2022-12-03T19:11:40.298Z,47.67
2022-12-03T19:14:06.706Z,47.40
2022-12-03T19:16:33.199Z,46.86
2022-12-03T19:18:59.693Z,47.38
2022-12-03T19:21:30.718Z,46.92
2022-12-03T19:24:23.096Z,46.64
2022-12-03T19:26:46.223Z,46.96
2022-12-03T19:29:12.689Z,46.61
2022-12-03T19:31:39.108Z,46.37
2022-12-03T19:34:05.602Z,46.11
2022-12-03T19:36:32.131Z,46.49
2022-12-03T19:38:58.671Z,46.15
2022-12-03T19:41:25.045Z,46.39
2022-12-03T19:43:51.469Z,45.65
2022-12-03T19:46:18.132Z,45.81
2022-12-03T19:48:44.611Z,45.69
2022-12-03T19:51:32.847Z,45.41
2022-12-03T19:53:57.510Z,45.34
2022-12-03T19:56:24.005Z,45.26
2022-12-03T19:58:50.407Z,45.26
2022-12-03T20:01:16.880Z,45.37
2022-12-03T20:03:43.345Z,45.18
2022-12-03T20:06:09.787Z,44.65
2022-12-03T20:08:36.197Z,44.78
2022-12-03T20:11:02.610Z,44.48
2022-12-03T20:13:33.504Z,44.74
2022-12-03T20:16:02.859Z,44.46
2022-12-03T20:18:29.375Z,44.24
2022-12-03T20:20:55.927Z,44.12
2022-12-03T20:23:22.323Z,43.95
2022-12-03T20:25:48.698Z,43.63
2022-12-03T20:28:15.127Z,43.62
2022-12-03T20:30:41.513Z,43.75
2022-12-03T20:33:08.006Z,43.20
2022-12-03T20:35:34.519Z,43.70
2022-12-03T20:38:02.087Z,43.77
2022-12-03T20:40:28.514Z,43.11
2022-12-03T20:42:54.917Z,43.60
2022-12-03T20:45:21.392Z,43.05
2022-12-03T20:47:47.813Z,43.30
2022-12-03T20:50:14.247Z,42.95
2022-12-03T20:52:48.483Z,43.09
2022-12-03T20:55:24.405Z,43.11
2022-12-03T20:57:50.848Z,42.78
2022-12-03T21:00:17.270Z,42.92
2022-12-03T21:02:43.781Z,42.92
2022-12-03T21:05:10.366Z,42.72
2022-12-03T21:07:36.889Z,42.94
2022-12-03T21:10:03.321Z,42.90
2022-12-03T21:12:29.729Z,42.73
2022-12-03T21:14:56.308Z,43.14
2022-12-03T21:17:23.033Z,42.62
2022-12-03T21:19:49.391Z,43.11
2022-12-03T21:22:15.728Z,43.17
2022-12-03T21:24:42.141Z,42.60
2022-12-03T21:27:08.525Z,42.85
2022-12-03T21:29:34.885Z,42.32
2022-12-03T21:32:01.376Z,42.16
2022-12-03T21:34:32.809Z,42.19
2022-12-03T21:37:02.539Z,42.75
2022-12-03T21:39:28.988Z,42.37
2022-12-03T21:42:33.353Z,42.58
2022-12-03T21:44:42.016Z,41.75
2022-12-03T21:47:13.974Z,42.46
2022-12-03T21:49:41.071Z,41.98
2022-12-03T21:52:07.538Z,41.76
2022-12-03T21:54:34.153Z,42.03
2022-12-03T21:57:00.566Z,42.02
2022-12-03T21:59:27.031Z,42.10
2022-12-03T22:01:53.449Z,42.31
2022-12-03T22:04:19.922Z,41.56
2022-12-03T22:06:46.316Z,41.60
2022-12-03T22:09:12.774Z,42.09
2022-12-03T22:11:39.249Z,41.60
2022-12-03T22:14:05.648Z,41.93
2022-12-03T22:16:32.077Z,41.55
2022-12-03T22:18:58.499Z,41.71
2022-12-03T22:21:24.959Z,42.04
2022-12-03T22:23:51.334Z,41.57
2022-12-03T22:26:17.742Z,41.68
2022-12-03T22:28:44.464Z,41.79
2022-12-03T22:31:10.923Z,41.47
2022-12-03T22:33:37.337Z,41.79
2022-12-03T22:36:03.715Z,41.33
2022-12-03T22:38:30.169Z,41.33
2022-12-03T22:40:56.552Z,41.10
2022-12-03T22:43:22.920Z,41.16
2022-12-03T22:45:49.393Z,41.68
2022-12-03T22:48:15.790Z,41.29
2022-12-03T22:50:42.182Z,41.61
2022-12-03T22:53:08.575Z,41.47
2022-12-03T22:55:34.952Z,41.68
2022-12-03T22:58:01.377Z,41.79
2022-12-03T23:00:27.754Z,41.58
2022-12-03T23:02:54.227Z,41.20
2022-12-03T23:05:20.623Z,41.63
2022-12-03T23:07:47.089Z,41.09
2022-12-03T23:10:13.486Z,41.16
2022-12-03T23:12:39.849Z,41.63
2022-12-03T23:15:06.245Z,41.60
2022-12-03T23:17:32.601Z,41.20
2022-12-03T23:19:59.013Z,41.22
2022-12-03T23:22:25.391Z,41.56
2022-12-03T23:24:51.770Z,41.46
2022-12-03T23:27:18.264Z,41.25
2022-12-03T23:29:44.623Z,41.22
2022-12-03T23:32:11.002Z,41.45
2022-12-03T23:34:37.458Z,41.12
2022-12-03T23:37:03.861Z,41.05
2022-12-03T23:39:30.215Z,40.93
2022-12-03T23:41:56.637Z,40.84
2022-12-03T23:44:23.057Z,41.28
2022-12-03T23:46:49.634Z,40.77
2022-12-03T23:49:16.100Z,41.11
2022-12-03T23:51:42.485Z,40.73
2022-12-03T23:54:08.845Z,40.83
2022-12-03T23:56:35.241Z,40.77
2022-12-03T23:59:01.629Z,41.17
